createdAt,value
2023-03-27T00:02:18.569Z,11.50
2023-03-27T00:04:45.765Z,11.30
2023-03-27T00:07:13.299Z,11.70
2023-03-27T00:09:40.154Z,13.40
2023-03-27T00:12:10.558Z,13.60
2023-03-27T00:14:41.978Z,12.10
2023-03-27T00:17:10.562Z,12.30
2023-03-27T00:19:45.502Z,13.50
2023-03-27T00:22:16.473Z,15.00
2023-03-27T00:24:43.334Z,12.80
2023-03-27T00:27:13.701Z,14.80
2023-03-27T00:29:40.800Z,14.90
2023-03-27T00:34:54.091Z,15.60
2023-03-27T00:37:22.996Z,17.70
2023-03-27T00:39:52.031Z,18.90
2023-03-27T00:42:23.044Z,18.40
2023-03-27T00:44:52.806Z,18.70
2023-03-27T00:47:39.036Z,20.40
2023-03-27T00:50:15.969Z,17.80
2023-03-27T00:52:44.855Z,20.80
2023-03-27T00:55:15.010Z,20.80
2023-03-27T00:57:44.697Z,20.50
2023-03-27T01:00:14.793Z,19.60
2023-03-27T01:03:05.188Z,19.70
2023-03-27T01:05:37.256Z,20.90
2023-03-27T01:08:05.806Z,20.10
2023-03-27T01:11:02.427Z,21.30
2023-03-27T01:14:02.627Z,26.00
2023-03-27T01:16:55.211Z,21.10
2023-03-27T01:19:52.095Z,22.40
2023-03-27T01:22:33.498Z,21.20
2023-03-27T01:25:04.936Z,22.20
2023-03-27T01:27:41.894Z,26.30
2023-03-27T01:30:19.236Z,28.10
2023-03-27T01:33:08.645Z,22.70
2023-03-27T01:35:48.453Z,24.70
2023-03-27T01:38:33.625Z,23.40
2023-03-27T01:41:04.821Z,23.70
2023-03-27T01:43:42.472Z,20.00
2023-03-27T01:46:26.845Z,23.20
2023-03-27T01:49:14.966Z,21.60
2023-03-27T01:51:49.559Z,24.70
2023-03-27T01:54:31.100Z,28.00
2023-03-27T01:57:31.570Z,28.90
2023-03-27T02:00:18.265Z,30.60
2023-03-27T02:02:58.097Z,29.40
2023-03-27T02:05:39.136Z,27.40
2023-03-27T02:08:15.762Z,31.50
2023-03-27T02:10:46.960Z,22.80
2023-03-27T02:13:22.137Z,23.40
2023-03-27T02:15:51.157Z,24.10
2023-03-27T02:18:24.217Z,24.70
2023-03-27T02:20:53.256Z,25.90
2023-03-27T02:23:23.256Z,24.40
2023-03-27T02:25:55.725Z,32.50
2023-03-27T02:28:47.142Z,26.00
2023-03-27T02:34:23.684Z,25.90
2023-03-27T02:37:32.428Z,30.10
2023-03-27T02:40:40.350Z,30.50
2023-03-27T02:43:32.065Z,29.20
2023-03-27T02:46:27.538Z,28.50
2023-03-27T02:49:04.189Z,27.50
2023-03-27T02:51:57.168Z,27.90
2023-03-27T02:54:28.803Z,24.70
2023-03-27T02:57:01.907Z,29.30
2023-03-27T02:59:49.847Z,25.20
2023-03-27T03:02:29.409Z,23.60
2023-03-27T03:05:12.948Z,23.80
2023-03-27T03:07:46.429Z,23.30
2023-03-27T03:10:16.213Z,26.50
2023-03-27T03:12:45.549Z,24.80
2023-03-27T03:15:17.324Z,23.90
2023-03-27T03:17:47.934Z,24.50
2023-03-27T03:22:50.042Z,20.40
2023-03-27T03:25:31.620Z,24.00
2023-03-27T03:28:00.989Z,24.40
2023-03-27T03:30:30.512Z,27.90
2023-03-27T03:33:20.281Z,28.50
2023-03-27T03:35:51.629Z,25.00
2023-03-27T03:38:29.966Z,23.30
2023-03-27T03:41:08.108Z,25.50
2023-03-27T03:43:38.057Z,25.20
2023-03-27T03:46:06.704Z,29.50
2023-03-27T03:48:35.999Z,48.60
2023-03-27T03:51:13.950Z,51.40
2023-03-27T03:53:43.714Z,31.90
2023-03-27T03:56:15.317Z,40.60
2023-03-27T03:58:48.115Z,43.40
2023-03-27T04:01:20.775Z,46.40
2023-03-27T04:03:54.084Z,42.60
2023-03-27T04:06:26.554Z,39.50
2023-03-27T04:09:03.213Z,34.60
2023-03-27T04:11:53.715Z,27.50
2023-03-27T04:14:43.895Z,28.40
2023-03-27T04:17:33.906Z,27.60
2023-03-27T04:20:08.633Z,29.00
2023-03-27T04:22:39.561Z,27.90
2023-03-27T04:25:13.904Z,29.30
2023-03-27T04:27:46.631Z,36.20
2023-03-27T04:30:26.762Z,29.60
2023-03-27T04:33:18.649Z,31.80
2023-03-27T04:36:07.636Z,39.80
2023-03-27T04:38:45.856Z,36.60
2023-03-27T04:41:29.850Z,35.10
2023-03-27T04:44:02.959Z,37.20
2023-03-27T04:46:34.953Z,42.80
2023-03-27T04:49:09.444Z,47.00
2023-03-27T04:51:59.017Z,57.00
2023-03-27T04:54:37.231Z,47.40
2023-03-27T04:57:08.816Z,46.10
2023-03-27T04:59:40.643Z,45.80
2023-03-27T05:02:43.141Z,43.10
2023-03-27T05:05:17.493Z,47.80
2023-03-27T05:07:57.304Z,48.70
2023-03-27T05:10:26.651Z,50.40
2023-03-27T05:12:57.865Z,54.00
2023-03-27T05:15:32.525Z,45.30
2023-03-27T05:18:05.612Z,42.40
2023-03-27T05:20:37.931Z,38.40
2023-03-27T05:23:11.029Z,41.00
2023-03-27T05:25:39.917Z,43.70
2023-03-27T05:28:15.451Z,45.70
2023-03-27T05:30:51.609Z,39.70
2023-03-27T05:33:36.434Z,41.60
2023-03-27T05:42:27.809Z,32.80
2023-03-27T05:44:59.363Z,32.20
2023-03-27T05:47:49.884Z,33.60
2023-03-27T05:50:20.662Z,35.10
2023-03-27T05:52:56.809Z,25.90
2023-03-27T05:55:31.619Z,26.70
2023-03-27T05:58:01.329Z,32.20
2023-03-27T06:00:34.790Z,28.80
2023-03-27T06:03:05.990Z,27.10
2023-03-27T06:06:36.744Z,25.90
2023-03-27T06:09:11.058Z,28.80
2023-03-27T06:11:52.564Z,23.60
2023-03-27T06:14:26.048Z,22.30
2023-03-27T06:17:15.336Z,28.90
2023-03-27T06:19:53.851Z,24.70
2023-03-27T06:22:23.558Z,20.00
2023-03-27T06:24:54.026Z,28.40
2023-03-27T06:27:22.651Z,31.70
2023-03-27T06:29:51.893Z,21.60
2023-03-27T10:07:33.027Z,5.50
2023-03-27T10:10:31.563Z,6.90
2023-03-27T10:13:09.596Z,7.40
2023-03-27T10:15:42.748Z,8.00
2023-03-27T10:18:27.992Z,10.60
2023-03-27T10:21:35.037Z,8.60
2023-03-27T10:24:17.396Z,7.50
2023-03-27T10:27:27.438Z,4.70
2023-03-27T10:30:32.915Z,6.40
2023-03-27T10:33:40.055Z,6.00
2023-03-27T10:36:40.268Z,4.50
2023-03-27T10:39:14.904Z,5.00
2023-03-27T10:42:06.351Z,4.90
2023-03-27T10:44:33.409Z,3.60
2023-03-27T10:47:00.429Z,2.50
2023-03-27T10:49:43.649Z,3.50
2023-03-27T10:52:28.978Z,4.00
2023-03-27T10:55:15.705Z,3.20
2023-03-27T10:57:54.275Z,3.30
2023-03-27T11:00:35.167Z,3.20
2023-03-27T11:03:14.781Z,3.20
2023-03-27T11:05:46.699Z,4.60
2023-03-27T11:08:32.737Z,3.60
2023-03-27T11:11:09.153Z,4.10
2023-03-27T11:13:41.157Z,4.40
2023-03-27T11:16:40.962Z,3.00
2023-03-27T11:19:43.198Z,2.20
2023-03-27T11:22:40.463Z,2.00
2023-03-27T11:25:11.955Z,1.90
2023-03-27T11:28:04.441Z,4.40
2023-03-27T11:30:32.024Z,2.00
2023-03-27T11:33:05.660Z,2.40
2023-03-27T11:35:48.564Z,3.30
2023-03-27T11:39:20.410Z,2.40
2023-03-27T11:44:25.320Z,2.70
2023-03-27T11:47:31.393Z,2.00
2023-03-27T11:50:12.245Z,2.20
2023-03-27T11:53:08.462Z,3.50
2023-03-27T11:56:09.880Z,4.00
2023-03-27T11:58:58.287Z,3.60
2023-03-27T12:01:45.054Z,4.40
2023-03-27T12:04:40.089Z,3.30
2023-03-27T12:07:49.432Z,6.80
2023-03-27T12:10:32.032Z,3.20
2023-03-27T12:13:42.038Z,7.40
2023-03-27T12:16:45.704Z,3.30
2023-03-27T12:19:45.866Z,3.60
2023-03-27T12:22:43.210Z,3.00
2023-03-27T12:25:49.632Z,3.90
2023-03-27T12:32:03.854Z,2.70
2023-03-27T12:34:59.368Z,1.00
2023-03-27T12:37:44.402Z,1.30
2023-03-27T12:40:28.988Z,4.70
2023-03-27T12:43:24.112Z,4.80
2023-03-27T12:46:11.670Z,3.10
2023-03-27T12:48:58.137Z,2.80
2023-03-27T12:51:51.372Z,2.70
2023-03-27T12:54:38.200Z,3.20
2023-03-27T12:57:30.676Z,1.20
2023-03-27T12:59:59.249Z,1.10
2023-03-27T13:03:09.128Z,1.30
2023-03-27T13:06:07.658Z,3.10
2023-03-27T13:08:39.320Z,1.50
2023-03-27T13:11:16.920Z,1.50
2023-03-27T13:14:27.201Z,2.40
2023-03-27T13:17:06.453Z,2.80
2023-03-27T13:20:07.543Z,3.30
2023-03-27T13:22:48.863Z,5.10
2023-03-27T13:26:01.030Z,3.40
2023-03-27T13:28:39.045Z,3.70
2023-03-27T13:31:35.369Z,4.10
2023-03-27T13:34:41.558Z,3.00
2023-03-27T13:37:13.672Z,3.10
2023-03-27T13:39:55.262Z,1.40
2023-03-27T13:42:36.512Z,2.40
2023-03-27T13:47:48.050Z,1.70
2023-03-27T13:50:42.735Z,1.20
2023-03-27T13:53:24.635Z,1.10
2023-03-27T13:56:16.881Z,1.70
2023-03-27T13:59:40.254Z,1.70
2023-03-27T14:02:38.712Z,8.10
2023-03-27T14:05:12.303Z,2.30
2023-03-27T14:08:05.813Z,1.30
2023-03-27T14:11:01.690Z,1.40
2023-03-27T14:13:56.785Z,4.30
2023-03-27T14:16:55.548Z,0.80
2023-03-27T14:19:29.457Z,2.40
2023-03-27T14:21:59.838Z,2.30
2023-03-27T14:24:43.974Z,1.90
2023-03-27T14:27:22.524Z,10.00
2023-03-27T14:30:16.373Z,4.40
2023-03-27T14:32:49.526Z,0.80
2023-03-27T14:35:32.653Z,2.40
2023-03-27T14:38:13.605Z,1.30
2023-03-27T14:40:47.203Z,2.40
2023-03-27T14:43:18.661Z,2.90
2023-03-27T14:45:52.231Z,3.10
2023-03-27T14:48:52.023Z,1.50
2023-03-27T14:51:34.190Z,1.70
2023-03-27T14:54:04.873Z,4.80
2023-03-27T14:56:46.943Z,4.60
2023-03-27T14:59:54.702Z,8.60
2023-03-27T15:02:38.340Z,2.60
2023-03-27T15:05:16.188Z,2.90
2023-03-27T15:07:49.106Z,4.20
2023-03-27T15:10:31.251Z,5.00
2023-03-27T15:13:13.019Z,2.60
2023-03-27T15:15:46.480Z,8.90
2023-03-27T15:18:16.550Z,5.60
2023-03-27T15:20:43.672Z,14.40
2023-03-27T15:23:33.132Z,11.50
2023-03-27T15:26:04.809Z,7.00
2023-03-27T15:28:41.894Z,3.80
2023-03-27T15:31:14.643Z,4.50
2023-03-27T15:33:55.436Z,4.80
2023-03-27T15:36:30.190Z,4.00
2023-03-27T15:39:03.557Z,4.00
2023-03-27T15:41:32.043Z,28.30
2023-03-27T15:44:08.753Z,16.40
2023-03-27T15:46:57.598Z,11.50
2023-03-27T15:49:30.311Z,7.80
2023-03-27T15:52:27.885Z,3.10
2023-03-27T15:54:55.312Z,7.20
2023-03-27T15:57:22.463Z,7.10
2023-03-27T15:59:52.148Z,8.40
2023-03-27T16:02:21.049Z,7.00
2023-03-27T16:04:54.722Z,11.50
2023-03-27T16:07:41.937Z,10.70
2023-03-27T16:10:10.525Z,10.90
2023-03-27T16:13:00.492Z,12.50
2023-03-27T16:15:38.101Z,10.90
2023-03-27T16:18:21.509Z,9.80
2023-03-27T16:20:48.677Z,12.90
2023-03-27T16:23:19.417Z,13.00
2023-03-27T16:26:10.038Z,39.90
2023-03-27T16:28:38.306Z,32.70
2023-03-27T16:31:12.636Z,35.10
2023-03-27T16:34:44.784Z,24.40
2023-03-27T16:37:25.049Z,14.80
2023-03-27T16:40:07.295Z,17.60
2023-03-27T16:42:49.464Z,16.80
2023-03-27T16:48:05.958Z,12.40
2023-03-27T16:50:37.451Z,16.60
2023-03-27T16:53:04.613Z,16.30
2023-03-27T16:55:31.490Z,15.80
2023-03-27T16:57:58.878Z,16.10
2023-03-27T17:00:26.527Z,15.80
2023-03-27T17:02:53.709Z,15.30
2023-03-27T17:05:21.042Z,10.80
2023-03-27T17:07:50.001Z,14.50
2023-03-27T17:10:27.920Z,13.90
2023-03-27T17:12:56.438Z,15.00
2023-03-27T17:15:23.914Z,17.10
2023-03-27T17:17:52.943Z,13.10
2023-03-27T17:20:20.100Z,18.20
2023-03-27T17:22:47.041Z,14.00
2023-03-27T17:25:15.333Z,15.60
2023-03-27T17:27:42.995Z,13.70
2023-03-27T17:30:10.578Z,13.00
2023-03-27T17:32:46.349Z,16.00
2023-03-27T17:35:13.257Z,14.90
2023-03-27T17:37:47.663Z,15.70
2023-03-27T17:40:38.706Z,15.80
2023-03-27T17:43:05.672Z,16.30
2023-03-27T17:45:33.692Z,17.50
2023-03-27T17:48:00.644Z,20.00
2023-03-27T17:50:27.586Z,15.80
2023-03-27T17:52:55.102Z,16.30
2023-03-27T17:55:22.033Z,21.80
2023-03-27T17:58:02.101Z,21.20
2023-03-27T18:03:03.477Z,15.60
2023-03-27T18:05:33.071Z,16.00
2023-03-27T18:08:00.255Z,14.50
2023-03-27T18:10:31.561Z,15.90
2023-03-27T18:13:03.169Z,18.80
2023-03-27T18:15:30.772Z,17.70
2023-03-27T18:17:59.044Z,17.00
2023-03-27T18:20:26.797Z,16.20
2023-03-27T18:22:56.361Z,12.60
2023-03-27T18:25:26.165Z,13.90
2023-03-27T18:27:53.178Z,15.70
2023-03-27T18:30:20.512Z,17.00
2023-03-27T18:32:48.244Z,18.20
2023-03-27T18:35:19.055Z,14.70
2023-03-27T18:37:46.444Z,15.40
2023-03-27T18:40:15.024Z,15.10
2023-03-27T18:43:01.726Z,15.10
2023-03-27T18:45:29.018Z,15.20
2023-03-27T18:47:55.967Z,11.20
2023-03-27T18:50:22.957Z,13.90
2023-03-27T18:52:50.120Z,9.90
2023-03-27T18:55:17.982Z,10.90
2023-03-27T18:57:45.582Z,11.90
2023-03-27T19:00:17.794Z,9.70
2023-03-27T19:02:47.439Z,9.40
2023-03-27T19:05:15.676Z,14.20
2023-03-27T19:07:44.391Z,20.70
2023-03-27T19:10:13.467Z,26.00
2023-03-27T19:12:40.530Z,28.00
2023-03-27T19:15:33.835Z,27.80
2023-03-27T19:18:27.821Z,28.90
2023-03-27T19:21:15.221Z,22.70
2023-03-27T19:23:48.992Z,22.00
2023-03-27T19:26:21.459Z,22.40
2023-03-27T19:31:37.818Z,26.50
2023-03-27T19:34:05.630Z,30.30
2023-03-27T19:36:32.702Z,30.30
2023-03-27T19:38:59.926Z,29.30
2023-03-27T19:41:27.238Z,29.40
2023-03-27T19:43:54.256Z,25.70
2023-03-27T19:46:24.007Z,20.40
2023-03-27T19:48:53.349Z,19.40
2023-03-27T19:51:44.394Z,18.90
2023-03-27T19:54:16.187Z,21.20
2023-03-27T19:56:43.503Z,18.80
2023-03-27T19:59:17.857Z,22.10
2023-03-27T20:01:53.846Z,14.50
2023-03-27T20:04:21.696Z,17.40
2023-03-27T20:06:56.851Z,15.20
2023-03-27T20:09:24.689Z,17.80
2023-03-27T20:11:57.213Z,15.70
2023-03-27T20:14:28.248Z,16.90
2023-03-27T20:16:56.098Z,21.80
2023-03-27T20:19:34.355Z,23.70
2023-03-27T20:22:11.264Z,31.40
2023-03-27T20:24:41.819Z,35.70
2023-03-27T20:27:08.943Z,51.20
2023-03-27T20:29:40.362Z,52.30
2023-03-27T20:32:08.884Z,51.40
2023-03-27T20:34:37.270Z,55.60
2023-03-27T20:37:11.370Z,52.00
2023-03-27T20:40:01.316Z,55.10
2023-03-27T20:42:30.342Z,60.50
2023-03-27T20:44:57.823Z,61.30
2023-03-27T20:47:25.443Z,62.60
2023-03-27T20:49:52.929Z,60.10
2023-03-27T20:52:22.183Z,62.10
2023-03-27T20:54:49.371Z,64.40
2023-03-27T20:57:17.706Z,64.70
2023-03-27T20:59:54.278Z,73.40
2023-03-27T21:02:21.857Z,75.80
2023-03-27T21:04:49.476Z,77.90
2023-03-27T21:07:16.615Z,75.90
2023-03-27T21:09:45.654Z,72.80
2023-03-27T21:12:13.038Z,69.60
2023-03-27T21:14:58.524Z,78.30
2023-03-27T21:17:36.118Z,63.60
2023-03-27T21:20:08.469Z,73.90
2023-03-27T21:22:39.742Z,56.10
2023-03-27T21:25:09.316Z,41.60
2023-03-27T21:27:36.608Z,30.90
2023-03-27T21:30:05.977Z,22.70
2023-03-27T21:32:33.774Z,14.40
2023-03-27T21:35:09.148Z,14.70
2023-03-27T21:38:02.131Z,10.90
2023-03-27T21:40:31.230Z,12.60
2023-03-27T21:43:09.428Z,11.70
2023-03-27T21:45:37.303Z,8.60
2023-03-27T21:48:05.830Z,11.50
2023-03-27T21:50:33.646Z,10.10
2023-03-27T21:53:02.093Z,11.20
2023-03-27T21:55:31.614Z,10.50
2023-03-27T21:57:59.017Z,10.70
2023-03-27T22:00:26.710Z,8.70
2023-03-27T22:03:02.424Z,9.20
2023-03-27T22:05:29.396Z,8.20
2023-03-27T22:07:57.279Z,10.70
2023-03-27T22:10:24.788Z,9.50
2023-03-27T22:12:52.086Z,11.30
2023-03-27T22:15:22.556Z,10.70
2023-03-27T22:17:51.829Z,8.60
2023-03-27T22:20:19.279Z,10.70
2023-03-27T22:23:41.104Z,7.60
2023-03-27T22:26:09.442Z,9.40
2023-03-27T22:28:42.523Z,9.20
2023-03-27T22:31:10.913Z,11.20
2023-03-27T22:33:39.624Z,9.40
2023-03-27T22:36:11.183Z,11.50
2023-03-27T22:38:40.366Z,11.00
2023-03-27T22:41:11.279Z,11.20
2023-03-27T22:43:40.429Z,9.50
2023-03-27T22:46:13.898Z,15.50
2023-03-27T22:48:43.781Z,10.20
2023-03-27T22:51:12.573Z,11.80
2023-03-27T22:53:45.168Z,16.80
2023-03-27T22:56:13.760Z,15.80
2023-03-27T22:58:42.525Z,16.80
2023-03-27T23:01:11.074Z,20.40
2023-03-27T23:03:39.832Z,21.70
2023-03-27T23:06:18.373Z,21.20
2023-03-27T23:08:48.721Z,27.90
2023-03-27T23:11:17.255Z,22.00
2023-03-27T23:13:49.797Z,19.10
2023-03-27T23:16:18.372Z,25.40
2023-03-27T23:18:46.949Z,23.90
2023-03-27T23:21:18.234Z,25.20
2023-03-27T23:23:48.771Z,30.30
2023-03-27T23:26:18.394Z,28.20
2023-03-27T23:28:47.859Z,30.10
2023-03-27T23:31:18.031Z,22.70
2023-03-27T23:33:47.718Z,27.00
2023-03-27T23:36:25.108Z,37.00
2023-03-27T23:38:54.085Z,25.50
2023-03-27T23:41:22.289Z,29.30
2023-03-27T23:43:51.138Z,25.10
2023-03-27T23:46:19.889Z,21.90
2023-03-27T23:48:49.549Z,20.30
2023-03-27T23:51:18.383Z,19.20
2023-03-27T23:53:48.749Z,15.80
2023-03-27T23:56:17.130Z,12.30
2023-03-27T23:58:45.799Z,11.70
